createdAt,value
2023-04-02T00:02:33.549Z,0.80
2023-04-02T00:05:52.371Z,0.88
2023-04-02T00:09:29.321Z,0.90
2023-04-02T00:12:31.586Z,0.70
2023-04-02T00:15:49.283Z,0.80
2023-04-02T00:18:55.043Z,0.90
2023-04-02T00:22:14.309Z,0.82
2023-04-02T00:25:23.331Z,0.63
2023-04-02T00:28:31.890Z,0.60
2023-04-02T00:31:50.340Z,0.80
2023-04-02T00:35:06.304Z,0.70
2023-04-02T00:38:17.130Z,0.80
2023-04-02T00:41:36.347Z,0.77
2023-04-02T00:44:46.768Z,0.83
2023-04-02T00:47:58.044Z,0.75
2023-04-02T00:51:26.321Z,0.73
2023-04-02T00:54:33.078Z,0.80
2023-04-02T00:57:50.531Z,0.70
2023-04-02T01:00:56.406Z,0.80
2023-04-02T01:04:12.430Z,0.90
2023-04-02T01:07:40.293Z,0.70
2023-04-02T01:11:13.551Z,0.70
2023-04-02T01:14:33.794Z,0.80
2023-04-02T01:18:09.131Z,0.70
2023-04-02T01:21:46.339Z,0.70
2023-04-02T01:24:57.433Z,0.65
2023-04-02T01:28:17.344Z,0.70
2023-04-02T01:31:36.586Z,0.70
2023-04-02T01:34:46.378Z,0.90
2023-04-02T01:38:11.594Z,0.80
2023-04-02T01:41:33.326Z,0.80
2023-04-02T01:44:46.861Z,0.80
2023-04-02T01:47:58.402Z,0.90
2023-04-02T01:51:14.338Z,0.90
2023-04-02T01:54:17.145Z,0.70
2023-04-02T01:57:31.362Z,0.70
2023-04-02T02:00:54.830Z,0.70
2023-04-02T02:04:13.356Z,0.70
2023-04-02T02:07:29.345Z,0.60
2023-04-02T02:10:39.246Z,0.70
2023-04-02T02:13:53.378Z,0.60
2023-04-02T02:17:03.358Z,0.70
2023-04-02T02:20:12.380Z,0.70
2023-04-02T02:23:21.548Z,0.60
2023-04-02T02:26:32.355Z,0.70
2023-04-02T02:29:52.609Z,0.70
2023-04-02T02:33:20.921Z,0.60
2023-04-02T02:36:44.381Z,0.70
2023-04-02T02:40:03.469Z,1.00
2023-04-02T02:43:22.170Z,0.73
2023-04-02T02:46:39.350Z,0.70
2023-04-02T02:49:44.936Z,0.70
2023-04-02T02:53:02.334Z,0.90
2023-04-02T02:56:11.476Z,0.73
2023-04-02T02:59:28.660Z,0.75
2023-04-02T03:02:41.309Z,0.82
2023-04-02T03:05:50.399Z,0.75
2023-04-02T03:09:23.407Z,0.90
2023-04-02T03:12:51.386Z,0.80
2023-04-02T03:16:22.868Z,0.90
2023-04-02T03:19:48.368Z,0.85
2023-04-02T03:23:13.400Z,0.90
2023-04-02T03:26:35.601Z,0.73
2023-04-02T03:29:59.975Z,0.80
2023-04-02T03:33:30.428Z,1.02
2023-04-02T03:36:46.521Z,0.70
2023-04-02T03:40:04.965Z,1.08
2023-04-02T03:43:27.387Z,0.83
2023-04-02T03:46:41.858Z,0.90
2023-04-02T03:50:03.436Z,1.10
2023-04-02T03:53:05.692Z,0.90
2023-04-02T03:56:38.404Z,0.85
2023-04-02T03:59:55.561Z,0.90
2023-04-02T04:03:16.605Z,0.80
2023-04-02T04:06:36.817Z,0.80
2023-04-02T04:09:54.399Z,0.70
2023-04-02T04:13:11.658Z,1.00
2023-04-02T04:16:34.783Z,1.00
2023-04-02T04:20:00.446Z,1.10
2023-04-02T04:23:17.984Z,0.90
2023-04-02T04:26:42.432Z,0.98
2023-04-02T04:29:57.909Z,1.05
2023-04-02T04:33:22.116Z,0.80
2023-04-02T04:36:31.656Z,0.90
2023-04-02T04:39:53.445Z,1.00
2023-04-02T04:43:00.602Z,0.90
2023-04-02T04:46:22.536Z,0.80
2023-04-02T04:49:51.421Z,1.03
2023-04-02T04:53:20.378Z,1.00
2023-04-02T04:56:33.432Z,1.08
2023-04-02T04:59:54.408Z,1.00
2023-04-02T05:03:30.434Z,0.90
2023-04-02T05:06:52.858Z,0.90
2023-04-02T05:10:29.473Z,1.30
2023-04-02T05:14:05.433Z,1.10
2023-04-02T05:17:16.950Z,1.15
2023-04-02T05:20:39.442Z,1.10
2023-04-02T05:23:55.715Z,1.10
2023-04-02T05:27:24.442Z,1.13
2023-04-02T05:30:56.151Z,1.10
2023-04-02T05:34:10.467Z,1.10
2023-04-02T05:37:29.423Z,0.98
2023-04-02T05:40:50.439Z,1.10
2023-04-02T05:44:01.989Z,1.30
2023-04-02T05:47:30.552Z,0.90
2023-04-02T05:50:46.459Z,1.35
2023-04-02T05:54:07.682Z,1.30
2023-04-02T05:57:39.390Z,1.10
2023-04-02T06:01:11.478Z,1.20
2023-04-02T06:04:23.850Z,1.30
2023-04-02T06:08:03.453Z,1.05
2023-04-02T06:11:20.495Z,1.10
2023-04-02T06:14:35.478Z,1.10
2023-04-02T06:17:56.924Z,1.17
2023-04-02T06:20:58.901Z,0.90
2023-04-02T06:24:18.500Z,1.33
2023-04-02T06:27:30.516Z,2.97
2023-04-02T06:30:41.521Z,1.50
2023-04-02T06:33:53.475Z,1.20
2023-04-02T06:37:24.257Z,1.20
2023-04-02T06:40:49.467Z,1.40
2023-04-02T06:44:09.461Z,1.10
2023-04-02T06:47:23.093Z,1.40
2023-04-02T06:50:54.598Z,1.03
2023-04-02T06:54:00.214Z,1.50
2023-04-02T06:57:17.513Z,1.48
2023-04-02T07:00:38.639Z,1.40
2023-04-02T07:03:50.670Z,1.40
2023-04-02T07:07:13.475Z,1.73
2023-04-02T07:10:15.395Z,1.27
2023-04-02T07:13:32.484Z,1.62
2023-04-02T07:16:52.762Z,1.90
2023-04-02T07:20:33.552Z,1.73
2023-04-02T07:23:35.289Z,1.40
2023-04-02T07:26:49.549Z,1.30
2023-04-02T07:30:00.741Z,1.25
2023-04-02T07:33:21.581Z,3.10
2023-04-02T07:36:30.534Z,1.70
2023-04-02T07:39:45.498Z,2.17
2023-04-02T07:42:47.630Z,1.40
2023-04-02T07:46:02.506Z,1.10
2023-04-02T07:49:10.520Z,1.70
2023-04-02T07:52:19.332Z,1.80
2023-04-02T07:55:37.734Z,1.70
2023-04-02T07:58:39.500Z,1.42
2023-04-02T08:01:54.648Z,1.85
2023-04-02T08:05:09.537Z,1.60
2023-04-02T08:08:25.266Z,2.20
2023-04-02T08:11:39.958Z,1.83
2023-04-02T08:14:54.473Z,1.98
2023-04-02T08:18:09.642Z,1.77
2023-04-02T08:21:18.557Z,1.85
2023-04-02T08:24:28.217Z,1.57
2023-04-02T08:27:37.054Z,2.00
2023-04-02T08:30:45.437Z,1.90
2023-04-02T08:33:53.862Z,2.08
2023-04-02T08:37:02.028Z,1.80
2023-04-02T08:40:11.549Z,1.93
2023-04-02T08:43:46.146Z,2.17
2023-04-02T08:46:59.696Z,1.98
2023-04-02T08:50:38.870Z,1.80
2023-04-02T08:53:55.627Z,2.10
2023-04-02T08:57:16.658Z,2.20
2023-04-02T09:00:47.099Z,1.80
2023-04-02T09:03:58.565Z,2.10
2023-04-02T09:07:23.873Z,2.25
2023-04-02T09:10:44.583Z,2.12
2023-04-02T09:14:05.861Z,2.20
2023-04-02T09:17:25.331Z,2.07
2023-04-02T09:20:34.566Z,2.45
2023-04-02T09:23:43.250Z,1.90
2023-04-02T09:26:52.563Z,2.10
2023-04-02T09:30:35.599Z,2.03
2023-04-02T09:33:52.421Z,2.40
2023-04-02T09:37:23.568Z,2.10
2023-04-02T09:40:29.733Z,1.95
2023-04-02T09:43:45.851Z,2.30
2023-04-02T09:46:52.560Z,2.03
2023-04-02T09:50:31.604Z,2.37
2023-04-02T09:53:39.064Z,1.90
2023-04-02T09:57:20.956Z,2.05
2023-04-02T10:00:32.263Z,2.10
2023-04-02T10:03:50.844Z,2.17
2023-04-02T10:07:08.952Z,2.30
2023-04-02T10:10:48.198Z,2.78
2023-04-02T10:14:06.813Z,2.10
2023-04-02T10:17:38.866Z,2.70
2023-04-02T10:24:22.988Z,2.23
2023-04-02T10:27:48.616Z,2.30
2023-04-02T10:31:15.943Z,2.25
2023-04-02T10:34:57.715Z,2.22
2023-04-02T10:38:34.304Z,2.80
2023-04-02T10:45:41.926Z,2.50
2023-04-02T10:49:08.616Z,2.17
2023-04-02T10:52:32.887Z,2.17
2023-04-02T10:55:46.855Z,2.30
2023-04-02T10:59:11.762Z,2.50
2023-04-02T11:02:41.054Z,2.25
2023-04-02T11:06:15.749Z,2.28
2023-04-02T11:09:30.605Z,2.90
2023-04-02T11:12:52.694Z,2.80
2023-04-02T11:15:54.743Z,2.10
2023-04-02T11:19:38.653Z,2.33
2023-04-02T11:22:50.274Z,2.20
2023-04-02T11:26:25.432Z,2.10
2023-04-02T11:29:46.814Z,2.00
2023-04-02T11:32:49.337Z,2.10
2023-04-02T11:36:04.681Z,2.03
2023-04-02T11:39:17.571Z,1.70
2023-04-02T11:42:36.666Z,2.37
2023-04-02T11:46:00.641Z,2.00
2023-04-02T11:49:36.079Z,2.00
2023-04-02T11:52:51.948Z,2.40
2023-04-02T11:56:25.774Z,2.20
2023-04-02T11:59:53.875Z,2.00
2023-04-02T12:03:28.835Z,1.80
2023-04-02T12:07:00.967Z,1.43
2023-04-02T12:10:42.792Z,2.60
2023-04-02T12:13:53.157Z,1.50
2023-04-02T12:17:01.695Z,1.80
2023-04-02T12:20:28.569Z,2.00
2023-04-02T12:24:05.663Z,1.37
2023-04-02T12:30:41.978Z,2.40
2023-04-02T12:34:21.342Z,1.90
2023-04-02T12:38:24.787Z,1.40
2023-04-02T12:41:45.973Z,1.53
2023-04-02T12:51:45.709Z,2.10
2023-04-02T12:54:57.705Z,1.90
2023-04-02T12:58:38.189Z,2.43
2023-04-02T13:01:57.971Z,2.20
2023-04-02T13:05:15.694Z,1.83
2023-04-02T13:08:30.884Z,1.70
2023-04-02T13:11:48.781Z,1.90
2023-04-02T13:15:06.020Z,1.40
2023-04-02T13:18:21.042Z,1.50
2023-04-02T13:21:41.315Z,1.42
2023-04-02T13:24:49.257Z,2.50
2023-04-02T13:27:58.769Z,2.57
2023-04-02T13:31:21.785Z,1.90
2023-04-02T13:34:24.021Z,1.73
2023-04-02T13:37:38.941Z,2.20
2023-04-02T13:40:42.440Z,2.05
2023-04-02T13:44:00.884Z,1.70
2023-04-02T13:50:43.478Z,1.37
2023-04-02T13:53:52.203Z,3.00
2023-04-02T14:00:32.066Z,1.10
2023-04-02T14:03:47.726Z,1.03
2023-04-02T14:07:33.010Z,1.00
2023-04-02T14:10:58.438Z,1.20
2023-04-02T14:14:28.842Z,2.67
2023-04-02T14:18:06.821Z,1.00
2023-04-02T14:21:33.913Z,1.30
2023-04-02T14:25:10.952Z,1.40
2023-04-02T14:28:32.788Z,1.42
2023-04-02T14:32:01.827Z,1.17
2023-04-02T14:35:27.291Z,1.50
2023-04-02T14:38:59.064Z,1.93
2023-04-02T14:42:10.118Z,2.10
2023-04-02T14:45:44.758Z,2.80
2023-04-02T14:49:08.784Z,3.35
2023-04-02T14:52:22.695Z,2.60
2023-04-02T14:55:40.753Z,2.20
2023-04-02T14:58:57.234Z,2.00
2023-04-02T15:02:23.842Z,1.60
2023-04-02T15:05:46.102Z,1.67
2023-04-02T15:09:13.787Z,2.40
2023-04-02T15:12:35.069Z,2.10
2023-04-02T15:15:52.199Z,1.70
2023-04-02T15:19:08.832Z,1.73
2023-04-02T15:22:48.833Z,2.03
2023-04-02T15:26:00.877Z,2.10
2023-04-02T15:29:36.779Z,2.00
2023-04-02T15:32:40.755Z,0.90
2023-04-02T15:36:13.866Z,1.23
2023-04-02T15:39:36.799Z,1.67
2023-04-02T15:42:58.501Z,1.40
2023-04-02T15:46:27.926Z,1.87
2023-04-02T15:50:26.743Z,1.00
2023-04-02T15:53:58.528Z,1.60
2023-04-02T15:57:30.864Z,1.62
2023-04-02T16:00:44.931Z,2.20
2023-04-02T16:04:21.144Z,1.87
2023-04-02T16:11:35.002Z,1.80
2023-04-02T16:14:45.796Z,3.33
2023-04-02T16:18:07.894Z,2.60
2023-04-02T16:24:44.845Z,3.35
2023-04-02T16:28:12.855Z,2.72
2023-04-02T16:31:33.938Z,2.97
2023-04-02T16:35:20.992Z,2.77
2023-04-02T16:38:47.769Z,2.70
2023-04-02T16:42:27.875Z,2.85
2023-04-02T16:46:08.915Z,2.65
2023-04-02T16:49:35.442Z,3.40
2023-04-02T16:52:58.900Z,4.50
2023-04-02T16:56:37.890Z,3.00
2023-04-02T16:59:59.137Z,3.35
2023-04-02T17:04:08.945Z,3.90
2023-04-02T17:11:51.714Z,2.60
2023-04-02T17:15:01.326Z,2.90
2023-04-02T17:18:27.876Z,3.00
2023-04-02T17:21:49.040Z,2.60
2023-04-02T17:25:07.891Z,2.20
2023-04-02T17:36:21.214Z,2.12
2023-04-02T17:39:42.525Z,2.28
2023-04-02T17:46:54.771Z,2.07
2023-04-02T17:50:36.617Z,1.80
2023-04-02T17:54:10.261Z,1.80
2023-04-02T17:57:38.279Z,2.00
2023-04-02T18:01:25.256Z,2.62
2023-04-02T18:04:46.256Z,1.90
2023-04-02T18:08:14.698Z,2.37
2023-04-02T18:11:46.902Z,2.15
2023-04-02T18:15:23.264Z,2.47
2023-04-02T18:18:50.471Z,7.90
2023-04-02T18:22:25.301Z,3.00
2023-04-02T18:25:49.313Z,2.90
2023-04-02T18:29:32.190Z,3.22
2023-04-02T18:33:18.751Z,3.12
2023-04-02T18:36:47.246Z,3.12
2023-04-02T18:40:24.197Z,3.13
2023-04-02T18:43:57.328Z,2.90
2023-04-02T18:47:33.232Z,3.72
2023-04-02T18:50:41.744Z,3.33
2023-04-02T18:53:53.247Z,3.05
2023-04-02T18:57:16.567Z,3.63
2023-04-02T19:00:25.936Z,3.62
2023-04-02T19:03:57.353Z,3.80
2023-04-02T19:07:15.370Z,4.05
2023-04-02T19:10:32.058Z,4.03
2023-04-02T19:13:40.197Z,3.60
2023-04-02T19:17:06.757Z,3.90
2023-04-02T19:20:39.217Z,3.92
2023-04-02T19:24:15.201Z,3.45
2023-04-02T19:27:29.229Z,3.85
2023-04-02T19:31:16.481Z,3.10
2023-04-02T19:34:40.191Z,3.25
2023-04-02T19:38:33.313Z,3.53
2023-04-02T19:41:53.653Z,3.40
2023-04-02T19:45:04.982Z,3.55
2023-04-02T19:48:31.438Z,3.77
2023-04-02T19:51:33.311Z,3.30
2023-04-02T19:54:48.256Z,3.40
2023-04-02T19:57:51.322Z,3.37
2023-04-02T20:01:08.412Z,3.30
2023-04-02T20:04:17.992Z,3.63
2023-04-02T20:07:26.241Z,3.20
2023-04-02T20:10:45.292Z,4.47
2023-04-02T20:13:48.213Z,4.18
2023-04-02T20:17:06.378Z,3.60
2023-04-02T20:20:16.193Z,3.60
2023-04-02T20:23:25.537Z,3.58
2023-04-02T20:26:37.748Z,3.42
2023-04-02T20:29:46.577Z,3.35
2023-04-02T20:33:09.131Z,3.33
2023-04-02T20:36:15.110Z,3.37
2023-04-02T20:39:29.297Z,3.28
2023-04-02T20:42:44.789Z,3.03
2023-04-02T20:45:55.949Z,2.70
2023-04-02T20:49:05.299Z,3.20
2023-04-02T20:52:17.525Z,3.17
2023-04-02T20:55:25.560Z,3.08
2023-04-02T20:58:35.786Z,3.10
2023-04-02T21:01:51.429Z,2.62
2023-04-02T21:04:53.212Z,2.95
2023-04-02T21:08:08.304Z,2.77
2023-04-02T21:11:17.272Z,3.22
2023-04-02T21:14:32.286Z,3.05
2023-04-02T21:17:40.390Z,3.47
2023-04-02T21:21:09.281Z,3.10
2023-04-02T21:24:21.226Z,2.70
2023-04-02T21:27:30.297Z,2.95
2023-04-02T21:30:45.581Z,3.03
2023-04-02T21:34:00.887Z,3.37
2023-04-02T21:37:15.467Z,3.33
2023-04-02T21:40:37.351Z,2.50
2023-04-02T21:43:54.290Z,2.05
2023-04-02T21:47:02.354Z,2.12
2023-04-02T21:50:17.375Z,2.05
2023-04-02T21:53:25.345Z,2.15
2023-04-02T21:56:36.541Z,1.80
2023-04-02T22:03:10.048Z,2.90
2023-04-02T22:06:27.327Z,2.30
2023-04-02T22:09:36.141Z,2.20
2023-04-02T22:12:57.312Z,1.90
2023-04-02T22:16:11.145Z,2.50
2023-04-02T22:19:22.303Z,2.92
2023-04-02T22:25:56.309Z,2.87
2023-04-02T22:29:11.314Z,2.90
2023-04-02T22:32:19.612Z,2.90
2023-04-02T22:35:36.362Z,3.30
2023-04-02T22:38:38.898Z,3.05
2023-04-02T22:41:53.380Z,3.20
2023-04-02T22:45:10.605Z,2.90
2023-04-02T22:48:19.304Z,3.08
2023-04-02T22:51:30.519Z,3.00
2023-04-02T22:54:45.334Z,2.75
2023-04-02T22:57:53.982Z,3.25
2023-04-02T23:01:02.293Z,2.90
2023-04-02T23:04:17.345Z,2.90
2023-04-02T23:07:33.375Z,3.62
2023-04-02T23:10:42.922Z,3.05
2023-04-02T23:13:53.428Z,3.17
2023-04-02T23:17:08.653Z,2.90
2023-04-02T23:20:21.392Z,3.20
2023-04-02T23:23:30.456Z,3.30
2023-04-02T23:26:45.366Z,3.40
2023-04-02T23:29:55.663Z,3.58
2023-04-02T23:33:11.581Z,3.50
2023-04-02T23:36:41.402Z,3.65
2023-04-02T23:39:50.902Z,3.78
2023-04-02T23:42:59.365Z,3.60
2023-04-02T23:46:08.470Z,3.97
2023-04-02T23:49:25.338Z,4.23
2023-04-02T23:52:27.174Z,4.07
2023-04-02T23:55:41.356Z,3.80
2023-04-02T23:58:43.844Z,4.03
